A4086 KDLF-KRND
Flight info
| Callsign | A4086 |
|---|---|
| Flight time | 1h 26m |
| Altitude | 7000 |
| Route | HINKO1 HINKO CSI CSI3 |
| Aircraft | S22T/L-SDGRY/S |
Departure
| Time | 2026-05-07 20:29 |
|---|---|
| Airport | Laughlin Air Force Base (KDLF) |
Arrival
| Time | 2026-05-07 21:55 |
|---|---|
| Airport | Randolph Air Force Base (KRND) |
| Time | Latitude | Longitude | Altitude | Speed | Heading |
|---|---|---|---|---|---|
| 2026-05-07 19:29 | 29.35626 | -100.78192 | 1086 ft | 0 kts | 317° |
| 2026-05-07 20:21 | 29.35631 | -100.78197 | 1104 ft | 5 kts | 325° |
| 2026-05-07 20:21 | 29.35674 | -100.78159 | 1086 ft | 12 kts | 45° |
| 2026-05-07 20:21 | 29.35701 | -100.78129 | 1086 ft | 0 kts | 44° |
| 2026-05-07 20:23 | 29.35703 | -100.78127 | 1086 ft | 2 kts | 45° |
| 2026-05-07 20:23 | 29.35691 | -100.78073 | 1086 ft | 13 kts | 136° |
| 2026-05-07 20:23 | 29.35613 | -100.77985 | 1086 ft | 18 kts | 136° |
| 2026-05-07 20:23 | 29.35520 | -100.77902 | 1087 ft | 18 kts | 144° |
| 2026-05-07 20:24 | 29.35438 | -100.77813 | 1088 ft | 17 kts | 135° |
| 2026-05-07 20:24 | 29.35348 | -100.77709 | 1089 ft | 19 kts | 135° |
| 2026-05-07 20:24 | 29.35276 | -100.77627 | 1090 ft | 11 kts | 135° |
| 2026-05-07 20:24 | 29.35209 | -100.77553 | 1091 ft | 16 kts | 135° |
| 2026-05-07 20:25 | 29.35122 | -100.77451 | 1091 ft | 18 kts | 134° |
| 2026-05-07 20:25 | 29.35027 | -100.77337 | 1090 ft | 19 kts | 133° |
| 2026-05-07 20:25 | 29.34961 | -100.77264 | 1090 ft | 11 kts | 137° |
| 2026-05-07 20:25 | 29.34923 | -100.77163 | 1089 ft | 17 kts | 100° |
| 2026-05-07 20:26 | 29.34898 | -100.77024 | 1090 ft | 17 kts | 101° |
| 2026-05-07 20:26 | 29.34879 | -100.76900 | 1091 ft | 8 kts | 99° |
| 2026-05-07 20:26 | 29.34883 | -100.76846 | 1090 ft | 11 kts | 31° |
| 2026-05-07 20:26 | 29.34925 | -100.76848 | 1090 ft | 0 kts | 346° |
| 2026-05-07 20:28 | 29.34938 | -100.76851 | 1090 ft | 8 kts | 347° |
| 2026-05-07 20:28 | 29.35018 | -100.76848 | 1089 ft | 14 kts | 315° |
| 2026-05-07 20:28 | 29.35038 | -100.76876 | 1089 ft | 0 kts | 316° |
| 2026-05-07 20:28 | 29.35102 | -100.76948 | 1088 ft | 46 kts | 315° |
| 2026-05-07 20:29 | 29.35470 | -100.77363 | 1187 ft | 88 kts | 315° |
| 2026-05-07 20:29 | 29.35889 | -100.77847 | 1512 ft | 83 kts | 312° |
| 2026-05-07 20:29 | 29.36255 | -100.78358 | 1844 ft | 84 kts | 310° |
| 2026-05-07 20:29 | 29.36638 | -100.78898 | 2106 ft | 94 kts | 308° |
| 2026-05-07 20:30 | 29.37142 | -100.79551 | 2134 ft | 122 kts | 319° |
| 2026-05-07 20:30 | 29.37766 | -100.80177 | 2434 ft | 117 kts | 319° |
| 2026-05-07 20:30 | 29.38401 | -100.80803 | 2657 ft | 124 kts | 319° |
| 2026-05-07 20:30 | 29.39029 | -100.81469 | 3053 ft | 123 kts | 316° |
| 2026-05-07 20:31 | 29.39664 | -100.82138 | 3457 ft | 124 kts | 316° |
| 2026-05-07 20:31 | 29.40279 | -100.82819 | 3818 ft | 125 kts | 315° |
| 2026-05-07 20:31 | 29.40927 | -100.83525 | 4052 ft | 128 kts | 312° |
| 2026-05-07 20:31 | 29.41563 | -100.84236 | 4329 ft | 128 kts | 313° |
| 2026-05-07 20:32 | 29.42353 | -100.84706 | 4568 ft | 132 kts | 358° |
| 2026-05-07 20:32 | 29.43210 | -100.84435 | 4816 ft | 128 kts | 40° |
| 2026-05-07 20:32 | 29.43665 | -100.83622 | 5090 ft | 120 kts | 78° |
| 2026-05-07 20:32 | 29.43841 | -100.82690 | 5348 ft | 121 kts | 82° |
| 2026-05-07 20:33 | 29.44047 | -100.81729 | 5574 ft | 126 kts | 83° |
| 2026-05-07 20:33 | 29.44251 | -100.80746 | 5881 ft | 127 kts | 83° |
| 2026-05-07 20:33 | 29.44450 | -100.79755 | 6185 ft | 130 kts | 84° |
| 2026-05-07 20:33 | 29.44655 | -100.78737 | 6495 ft | 132 kts | 84° |
| 2026-05-07 20:34 | 29.44863 | -100.77702 | 6791 ft | 134 kts | 84° |
| 2026-05-07 20:34 | 29.45072 | -100.76664 | 7088 ft | 136 kts | 84° |
| 2026-05-07 20:34 | 29.45287 | -100.75594 | 7383 ft | 138 kts | 83° |
| 2026-05-07 20:34 | 29.45505 | -100.74505 | 7695 ft | 141 kts | 83° |
| 2026-05-07 20:35 | 29.45725 | -100.73403 | 8012 ft | 143 kts | 83° |
| 2026-05-07 20:35 | 29.45948 | -100.72286 | 8330 ft | 145 kts | 82° |
| 2026-05-07 20:35 | 29.46176 | -100.71147 | 8646 ft | 148 kts | 82° |
| 2026-05-07 20:35 | 29.46407 | -100.69988 | 8953 ft | 150 kts | 82° |
| 2026-05-07 20:36 | 29.46645 | -100.68756 | 8985 ft | 166 kts | 82° |
| 2026-05-07 20:36 | 29.47091 | -100.67495 | 8989 ft | 181 kts | 54° |
| 2026-05-07 20:36 | 29.48038 | -100.66502 | 8986 ft | 188 kts | 35° |
| 2026-05-07 20:36 | 29.49090 | -100.65582 | 8986 ft | 192 kts | 36° |
| 2026-05-07 20:37 | 29.50150 | -100.64633 | 8984 ft | 195 kts | 37° |
| 2026-05-07 20:37 | 29.51221 | -100.63670 | 8981 ft | 196 kts | 36° |
| 2026-05-07 20:37 | 29.52302 | -100.62700 | 8983 ft | 197 kts | 36° |
| 2026-05-07 20:37 | 29.53384 | -100.61730 | 8973 ft | 197 kts | 37° |
| 2026-05-07 20:38 | 29.54462 | -100.60762 | 8973 ft | 196 kts | 37° |
| 2026-05-07 20:38 | 29.55539 | -100.59795 | 8971 ft | 196 kts | 37° |
| 2026-05-07 20:38 | 29.56616 | -100.58830 | 8972 ft | 196 kts | 37° |
| 2026-05-07 20:38 | 29.57694 | -100.57863 | 8973 ft | 197 kts | 37° |
| 2026-05-07 20:39 | 29.58773 | -100.56895 | 8973 ft | 197 kts | 36° |
| 2026-05-07 20:39 | 29.59841 | -100.55937 | 8971 ft | 197 kts | 36° |
| 2026-05-07 20:39 | 29.60923 | -100.54965 | 8974 ft | 198 kts | 36° |
| 2026-05-07 20:39 | 29.62007 | -100.53995 | 8974 ft | 198 kts | 36° |
| 2026-05-07 20:40 | 29.63092 | -100.53020 | 8973 ft | 198 kts | 36° |
| 2026-05-07 20:40 | 29.64175 | -100.52045 | 8978 ft | 198 kts | 36° |
| 2026-05-07 20:40 | 29.65265 | -100.51067 | 8980 ft | 199 kts | 36° |
| 2026-05-07 20:40 | 29.66355 | -100.50088 | 8977 ft | 199 kts | 36° |
| 2026-05-07 20:41 | 29.67446 | -100.49109 | 8979 ft | 199 kts | 36° |
| 2026-05-07 20:41 | 29.68535 | -100.48128 | 8978 ft | 199 kts | 36° |
| 2026-05-07 20:41 | 29.69624 | -100.47147 | 8979 ft | 199 kts | 36° |
| 2026-05-07 20:41 | 29.70707 | -100.46166 | 8985 ft | 198 kts | 37° |
| 2026-05-07 20:42 | 29.71790 | -100.45198 | 8986 ft | 197 kts | 36° |
| 2026-05-07 20:42 | 29.72865 | -100.44231 | 8986 ft | 195 kts | 36° |
| 2026-05-07 20:42 | 29.73928 | -100.43272 | 8983 ft | 193 kts | 37° |
| 2026-05-07 20:42 | 29.74981 | -100.42322 | 8986 ft | 191 kts | 36° |
| 2026-05-07 20:43 | 29.76025 | -100.41383 | 8988 ft | 190 kts | 36° |
| 2026-05-07 20:43 | 29.77065 | -100.40447 | 8983 ft | 189 kts | 36° |
| 2026-05-07 20:43 | 29.78102 | -100.39512 | 8982 ft | 189 kts | 36° |
| 2026-05-07 20:43 | 29.79137 | -100.38578 | 8983 ft | 189 kts | 36° |
| 2026-05-07 20:44 | 29.80176 | -100.37642 | 8985 ft | 190 kts | 36° |
| 2026-05-07 20:44 | 29.81217 | -100.36704 | 8985 ft | 190 kts | 36° |
| 2026-05-07 20:44 | 29.82259 | -100.35762 | 8986 ft | 191 kts | 36° |
| 2026-05-07 20:44 | 29.83289 | -100.34831 | 8984 ft | 190 kts | 36° |
| 2026-05-07 20:45 | 29.84334 | -100.33889 | 8983 ft | 191 kts | 36° |
| 2026-05-07 20:45 | 29.85384 | -100.32942 | 8985 ft | 192 kts | 36° |
| 2026-05-07 20:45 | 29.86439 | -100.31990 | 8986 ft | 193 kts | 37° |
| 2026-05-07 20:45 | 29.87491 | -100.31030 | 8985 ft | 193 kts | 36° |
| 2026-05-07 20:46 | 29.88554 | -100.30075 | 8998 ft | 194 kts | 37° |
| 2026-05-07 20:46 | 29.89619 | -100.29112 | 8997 ft | 194 kts | 36° |
| 2026-05-07 20:46 | 29.90683 | -100.28150 | 8996 ft | 195 kts | 36° |
| 2026-05-07 20:46 | 29.91749 | -100.27185 | 8998 ft | 194 kts | 36° |
| 2026-05-07 20:47 | 29.92814 | -100.26222 | 9001 ft | 194 kts | 36° |
| 2026-05-07 20:47 | 29.93875 | -100.25261 | 9001 ft | 194 kts | 36° |
| 2026-05-07 20:47 | 29.94926 | -100.24308 | 9000 ft | 194 kts | 36° |
| 2026-05-07 20:47 | 29.95988 | -100.23347 | 8999 ft | 194 kts | 36° |
| 2026-05-07 20:48 | 29.97051 | -100.22382 | 8997 ft | 194 kts | 36° |
| 2026-05-07 20:48 | 29.98112 | -100.21419 | 8997 ft | 194 kts | 36° |
| 2026-05-07 20:48 | 29.99179 | -100.20454 | 8998 ft | 194 kts | 36° |
| 2026-05-07 20:48 | 30.00240 | -100.19492 | 8998 ft | 194 kts | 38° |
| 2026-05-07 20:49 | 30.01302 | -100.18530 | 8997 ft | 194 kts | 38° |
| 2026-05-07 20:49 | 30.02362 | -100.17569 | 8997 ft | 194 kts | 38° |
| 2026-05-07 20:49 | 30.03423 | -100.16606 | 8994 ft | 194 kts | 38° |
| 2026-05-07 20:49 | 30.04480 | -100.15646 | 8994 ft | 194 kts | 38° |
| 2026-05-07 20:50 | 30.05538 | -100.14680 | 8995 ft | 193 kts | 39° |
| 2026-05-07 20:50 | 30.06366 | -100.13479 | 8988 ft | 191 kts | 66° |
| 2026-05-07 20:50 | 30.06722 | -100.12050 | 8994 ft | 186 kts | 90° |
| 2026-05-07 20:50 | 30.06615 | -100.10595 | 8996 ft | 181 kts | 107° |
| 2026-05-07 20:51 | 30.06380 | -100.09170 | 9000 ft | 181 kts | 106° |
| 2026-05-07 20:51 | 30.06159 | -100.07740 | 9001 ft | 181 kts | 106° |
| 2026-05-07 20:51 | 30.05937 | -100.06323 | 8998 ft | 181 kts | 106° |
| 2026-05-07 20:51 | 30.05710 | -100.04895 | 9000 ft | 181 kts | 106° |
| 2026-05-07 20:52 | 30.05484 | -100.03460 | 9003 ft | 181 kts | 106° |
| 2026-05-07 20:52 | 30.05257 | -100.02025 | 9002 ft | 181 kts | 106° |
| 2026-05-07 20:52 | 30.05029 | -100.00590 | 9007 ft | 182 kts | 106° |
| 2026-05-07 20:52 | 30.04799 | -99.99138 | 9010 ft | 185 kts | 105° |
| 2026-05-07 20:53 | 30.04564 | -99.97665 | 9012 ft | 187 kts | 106° |
| 2026-05-07 20:53 | 30.04330 | -99.96193 | 9011 ft | 185 kts | 106° |
| 2026-05-07 20:53 | 30.04101 | -99.94755 | 9010 ft | 184 kts | 106° |
| 2026-05-07 20:53 | 30.03872 | -99.93305 | 9008 ft | 183 kts | 106° |
| 2026-05-07 20:54 | 30.03643 | -99.91859 | 9009 ft | 182 kts | 106° |
| 2026-05-07 20:54 | 30.03413 | -99.90417 | 9009 ft | 182 kts | 106° |
| 2026-05-07 20:54 | 30.03182 | -99.88971 | 9013 ft | 184 kts | 106° |
| 2026-05-07 20:54 | 30.02950 | -99.87514 | 9013 ft | 185 kts | 106° |
| 2026-05-07 20:55 | 30.02720 | -99.86064 | 9008 ft | 187 kts | 106° |
| 2026-05-07 20:55 | 30.02493 | -99.84585 | 9000 ft | 186 kts | 107° |
| 2026-05-07 20:55 | 30.02250 | -99.83129 | 9000 ft | 184 kts | 106° |
| 2026-05-07 20:55 | 30.02017 | -99.81683 | 9002 ft | 183 kts | 106° |
| 2026-05-07 20:56 | 30.01788 | -99.80245 | 9001 ft | 182 kts | 106° |
| 2026-05-07 20:56 | 30.01560 | -99.78809 | 9000 ft | 181 kts | 106° |
| 2026-05-07 20:56 | 30.01331 | -99.77380 | 8998 ft | 181 kts | 106° |
| 2026-05-07 20:56 | 30.01102 | -99.75952 | 8996 ft | 181 kts | 106° |
| 2026-05-07 20:57 | 30.00874 | -99.74527 | 8996 ft | 181 kts | 106° |
| 2026-05-07 20:57 | 30.00645 | -99.73101 | 9000 ft | 180 kts | 106° |
| 2026-05-07 20:57 | 30.00416 | -99.71678 | 9000 ft | 181 kts | 106° |
| 2026-05-07 20:57 | 30.00188 | -99.70254 | 8998 ft | 181 kts | 106° |
| 2026-05-07 20:58 | 29.99958 | -99.68829 | 9004 ft | 181 kts | 106° |
| 2026-05-07 20:58 | 29.99733 | -99.67394 | 9180 ft | 180 kts | 106° |
| 2026-05-07 20:58 | 29.99509 | -99.65987 | 9355 ft | 181 kts | 106° |
| 2026-05-07 20:58 | 29.99276 | -99.64553 | 9518 ft | 183 kts | 106° |
| 2026-05-07 20:59 | 29.99042 | -99.63106 | 9696 ft | 183 kts | 106° |
| 2026-05-07 20:59 | 29.98806 | -99.61654 | 9864 ft | 184 kts | 106° |
| 2026-05-07 20:59 | 29.98570 | -99.60195 | 10002 ft | 187 kts | 106° |
| 2026-05-07 20:59 | 29.98324 | -99.58706 | 10007 ft | 188 kts | 106° |
| 2026-05-07 21:00 | 29.98080 | -99.57220 | 10009 ft | 188 kts | 107° |
| 2026-05-07 21:00 | 29.97840 | -99.55735 | 10013 ft | 188 kts | 106° |
| 2026-05-07 21:00 | 29.97605 | -99.54270 | 10007 ft | 188 kts | 106° |
| 2026-05-07 21:00 | 29.97365 | -99.52782 | 10016 ft | 188 kts | 106° |
| 2026-05-07 21:01 | 29.97125 | -99.51298 | 10016 ft | 188 kts | 106° |
| 2026-05-07 21:01 | 29.96885 | -99.49818 | 10007 ft | 187 kts | 106° |
| 2026-05-07 21:01 | 29.96645 | -99.48342 | 10013 ft | 187 kts | 107° |
| 2026-05-07 21:01 | 29.96486 | -99.47366 | 10012 ft | 187 kts | 106° |
| 2026-05-07 21:02 | 29.96166 | -99.45393 | 10012 ft | 186 kts | 107° |
| 2026-05-07 21:02 | 29.96007 | -99.44421 | 10015 ft | 186 kts | 107° |
| 2026-05-07 21:02 | 29.95689 | -99.42477 | 10014 ft | 186 kts | 107° |
| 2026-05-07 21:02 | 29.95450 | -99.41010 | 10012 ft | 186 kts | 107° |
| 2026-05-07 21:03 | 29.95211 | -99.39544 | 10011 ft | 186 kts | 107° |
| 2026-05-07 21:03 | 29.95049 | -99.38552 | 10011 ft | 186 kts | 107° |
| 2026-05-07 21:03 | 29.94813 | -99.37102 | 10007 ft | 186 kts | 107° |
| 2026-05-07 21:03 | 29.94573 | -99.35638 | 10008 ft | 186 kts | 107° |
| 2026-05-07 21:04 | 29.94333 | -99.34174 | 10011 ft | 186 kts | 107° |
| 2026-05-07 21:04 | 29.94093 | -99.32707 | 10010 ft | 186 kts | 107° |
| 2026-05-07 21:04 | 29.93851 | -99.31243 | 10012 ft | 186 kts | 107° |
| 2026-05-07 21:04 | 29.93611 | -99.29769 | 10014 ft | 187 kts | 107° |
| 2026-05-07 21:05 | 29.93369 | -99.28295 | 10019 ft | 187 kts | 107° |
| 2026-05-07 21:05 | 29.93124 | -99.26819 | 10020 ft | 187 kts | 107° |
| 2026-05-07 21:05 | 29.92880 | -99.25339 | 10021 ft | 188 kts | 107° |
| 2026-05-07 21:05 | 29.92640 | -99.23862 | 10020 ft | 187 kts | 107° |
| 2026-05-07 21:06 | 29.92398 | -99.22393 | 10018 ft | 187 kts | 107° |
| 2026-05-07 21:06 | 29.92077 | -99.20981 | 10015 ft | 181 kts | 121° |
| 2026-05-07 21:06 | 29.91537 | -99.19672 | 10021 ft | 181 kts | 121° |
| 2026-05-07 21:06 | 29.91024 | -99.18344 | 10022 ft | 181 kts | 121° |
| 2026-05-07 21:07 | 29.90511 | -99.17017 | 10025 ft | 181 kts | 121° |
| 2026-05-07 21:07 | 29.89992 | -99.15691 | 10024 ft | 181 kts | 121° |
| 2026-05-07 21:07 | 29.89476 | -99.14369 | 10036 ft | 180 kts | 121° |
| 2026-05-07 21:07 | 29.88962 | -99.13056 | 10038 ft | 180 kts | 121° |
| 2026-05-07 21:08 | 29.88446 | -99.11737 | 10038 ft | 181 kts | 121° |
| 2026-05-07 21:08 | 29.87929 | -99.10418 | 10039 ft | 181 kts | 121° |
| 2026-05-07 21:08 | 29.87410 | -99.09091 | 10039 ft | 182 kts | 121° |
| 2026-05-07 21:08 | 29.86890 | -99.07761 | 10038 ft | 182 kts | 121° |
| 2026-05-07 21:09 | 29.86370 | -99.06434 | 10040 ft | 182 kts | 121° |
| 2026-05-07 21:09 | 29.85847 | -99.05104 | 10039 ft | 183 kts | 121° |
| 2026-05-07 21:09 | 29.85324 | -99.03773 | 10038 ft | 183 kts | 121° |
| 2026-05-07 21:09 | 29.84803 | -99.02439 | 10036 ft | 182 kts | 121° |
| 2026-05-07 21:10 | 29.84282 | -99.01107 | 10033 ft | 182 kts | 121° |
| 2026-05-07 21:10 | 29.83759 | -98.99777 | 10033 ft | 182 kts | 121° |
| 2026-05-07 21:10 | 29.83174 | -98.98501 | 10025 ft | 178 kts | 131° |
| 2026-05-07 21:10 | 29.82441 | -98.97360 | 10025 ft | 177 kts | 134° |
| 2026-05-07 21:11 | 29.81865 | -98.96092 | 10023 ft | 187 kts | 106° |
| 2026-05-07 21:11 | 29.81999 | -98.94576 | 10027 ft | 193 kts | 81° |
| 2026-05-07 21:11 | 29.82546 | -98.91617 | 9655 ft | 188 kts | 83° |
| 2026-05-07 21:12 | 29.82803 | -98.90141 | 9306 ft | 187 kts | 83° |
| 2026-05-07 21:12 | 29.83064 | -98.88677 | 8977 ft | 185 kts | 82° |
| 2026-05-07 21:12 | 29.83322 | -98.87237 | 8630 ft | 182 kts | 82° |
| 2026-05-07 21:12 | 29.83578 | -98.85798 | 8339 ft | 183 kts | 82° |
| 2026-05-07 21:13 | 29.83836 | -98.84377 | 8160 ft | 180 kts | 82° |
| 2026-05-07 21:13 | 29.84085 | -98.82973 | 7946 ft | 178 kts | 82° |
| 2026-05-07 21:13 | 29.84329 | -98.81580 | 7648 ft | 177 kts | 82° |
| 2026-05-07 21:13 | 29.84571 | -98.80204 | 7409 ft | 175 kts | 82° |
| 2026-05-07 21:14 | 29.84814 | -98.78833 | 7136 ft | 174 kts | 82° |
| 2026-05-07 21:14 | 29.85055 | -98.77473 | 6892 ft | 172 kts | 82° |
| 2026-05-07 21:14 | 29.85292 | -98.76128 | 6647 ft | 171 kts | 82° |
| 2026-05-07 21:14 | 29.85528 | -98.74796 | 6400 ft | 169 kts | 82° |
| 2026-05-07 21:15 | 29.85759 | -98.73482 | 6142 ft | 167 kts | 83° |
| 2026-05-07 21:15 | 29.85990 | -98.72166 | 5854 ft | 167 kts | 83° |
| 2026-05-07 21:15 | 29.86223 | -98.70885 | 5614 ft | 164 kts | 80° |
| 2026-05-07 21:15 | 29.86440 | -98.69613 | 5370 ft | 161 kts | 81° |
| 2026-05-07 21:16 | 29.86660 | -98.68358 | 5119 ft | 158 kts | 81° |
| 2026-05-07 21:16 | 29.86877 | -98.67128 | 4885 ft | 156 kts | 80° |
| 2026-05-07 21:16 | 29.87092 | -98.65908 | 4637 ft | 154 kts | 79° |
| 2026-05-07 21:16 | 29.87304 | -98.64705 | 4410 ft | 151 kts | 80° |
| 2026-05-07 21:17 | 29.87508 | -98.63543 | 4199 ft | 147 kts | 79° |
| 2026-05-07 21:17 | 29.87710 | -98.62395 | 3958 ft | 146 kts | 79° |
| 2026-05-07 21:17 | 29.87911 | -98.61244 | 3732 ft | 145 kts | 78° |
| 2026-05-07 21:17 | 29.88110 | -98.60114 | 3533 ft | 143 kts | 78° |
| 2026-05-07 21:18 | 29.88307 | -98.58986 | 3309 ft | 141 kts | 78° |
| 2026-05-07 21:18 | 29.88499 | -98.57889 | 3065 ft | 139 kts | 78° |
| 2026-05-07 21:18 | 29.88687 | -98.56822 | 3001 ft | 133 kts | 77° |
| 2026-05-07 21:18 | 29.88869 | -98.55804 | 2997 ft | 130 kts | 76° |
| 2026-05-07 21:19 | 29.89052 | -98.54772 | 2991 ft | 132 kts | 77° |
| 2026-05-07 21:19 | 29.89235 | -98.53723 | 2990 ft | 134 kts | 76° |
| 2026-05-07 21:19 | 29.89402 | -98.52673 | 2993 ft | 133 kts | 81° |
| 2026-05-07 21:19 | 29.89290 | -98.51612 | 2992 ft | 136 kts | 103° |
| 2026-05-07 21:20 | 29.88829 | -98.50649 | 2988 ft | 141 kts | 124° |
| 2026-05-07 21:20 | 29.88052 | -98.49942 | 2989 ft | 146 kts | 147° |
| 2026-05-07 21:20 | 29.87058 | -98.49636 | 2996 ft | 151 kts | 168° |
| 2026-05-07 21:20 | 29.86083 | -98.49283 | 2998 ft | 147 kts | 149° |
| 2026-05-07 21:21 | 29.85310 | -98.48577 | 2997 ft | 140 kts | 120° |
| 2026-05-07 21:21 | 29.84652 | -98.47740 | 2993 ft | 145 kts | 137° |
| 2026-05-07 21:21 | 29.83791 | -98.47123 | 3001 ft | 145 kts | 144° |
| 2026-05-07 21:21 | 29.82918 | -98.46537 | 3007 ft | 146 kts | 144° |
| 2026-05-07 21:22 | 29.82035 | -98.45952 | 3002 ft | 147 kts | 143° |
| 2026-05-07 21:22 | 29.81148 | -98.45365 | 3001 ft | 147 kts | 143° |
| 2026-05-07 21:22 | 29.80263 | -98.44777 | 3005 ft | 147 kts | 144° |
| 2026-05-07 21:22 | 29.79377 | -98.44191 | 3003 ft | 146 kts | 144° |
| 2026-05-07 21:23 | 29.78497 | -98.43607 | 3000 ft | 146 kts | 143° |
| 2026-05-07 21:23 | 29.77611 | -98.43018 | 2997 ft | 147 kts | 144° |
| 2026-05-07 21:23 | 29.76723 | -98.42429 | 2999 ft | 148 kts | 144° |
| 2026-05-07 21:23 | 29.75827 | -98.41836 | 3000 ft | 148 kts | 144° |
| 2026-05-07 21:24 | 29.74945 | -98.41252 | 2999 ft | 148 kts | 145° |
| 2026-05-07 21:24 | 29.74053 | -98.40660 | 2998 ft | 148 kts | 146° |
| 2026-05-07 21:24 | 29.73157 | -98.40078 | 2996 ft | 148 kts | 148° |
| 2026-05-07 21:24 | 29.72225 | -98.39571 | 2999 ft | 148 kts | 149° |
| 2026-05-07 21:25 | 29.71292 | -98.39083 | 2996 ft | 146 kts | 148° |
| 2026-05-07 21:25 | 29.70401 | -98.38548 | 2992 ft | 144 kts | 145° |
| 2026-05-07 21:25 | 29.69528 | -98.37995 | 2995 ft | 144 kts | 146° |
| 2026-05-07 21:25 | 29.68610 | -98.37496 | 2991 ft | 145 kts | 146° |
| 2026-05-07 21:26 | 29.67731 | -98.36935 | 2982 ft | 145 kts | 144° |
| 2026-05-07 21:26 | 29.66891 | -98.36343 | 2978 ft | 140 kts | 145° |
| 2026-05-07 21:26 | 29.66082 | -98.35745 | 2982 ft | 133 kts | 137° |
| 2026-05-07 21:26 | 29.65344 | -98.35129 | 3020 ft | 133 kts | 139° |
| 2026-05-07 21:27 | 29.64580 | -98.34519 | 2976 ft | 134 kts | 140° |
| 2026-05-07 21:27 | 29.63774 | -98.33963 | 2901 ft | 135 kts | 142° |
| 2026-05-07 21:27 | 29.62961 | -98.33395 | 2776 ft | 136 kts | 142° |
| 2026-05-07 21:27 | 29.62167 | -98.32807 | 2608 ft | 138 kts | 142° |
| 2026-05-07 21:28 | 29.61322 | -98.32243 | 2405 ft | 142 kts | 145° |
| 2026-05-07 21:28 | 29.60453 | -98.31693 | 2217 ft | 142 kts | 144° |
| 2026-05-07 21:28 | 29.59584 | -98.31132 | 1998 ft | 143 kts | 142° |
| 2026-05-07 21:28 | 29.58737 | -98.30524 | 1796 ft | 144 kts | 143° |
| 2026-05-07 21:29 | 29.57851 | -98.29968 | 1603 ft | 147 kts | 148° |
| 2026-05-07 21:29 | 29.56953 | -98.29391 | 1405 ft | 146 kts | 143° |
| 2026-05-07 21:29 | 29.56116 | -98.28803 | 1240 ft | 132 kts | 147° |
| 2026-05-07 21:29 | 29.55354 | -98.28329 | 1042 ft | 122 kts | 143° |
| 2026-05-07 21:30 | 29.54617 | -98.27818 | 918 ft | 127 kts | 143° |
| 2026-05-07 21:30 | 29.53798 | -98.27254 | 1045 ft | 146 kts | 144° |
| 2026-05-07 21:30 | 29.52914 | -98.26632 | 1273 ft | 150 kts | 142° |
| 2026-05-07 21:30 | 29.52034 | -98.25987 | 1503 ft | 153 kts | 136° |
| 2026-05-07 21:31 | 29.51536 | -98.25024 | 1762 ft | 136 kts | 90° |
| 2026-05-07 21:31 | 29.51574 | -98.23990 | 2005 ft | 128 kts | 74° |
| 2026-05-07 21:31 | 29.51845 | -98.23028 | 2213 ft | 127 kts | 56° |
| 2026-05-07 21:31 | 29.52506 | -98.22359 | 2456 ft | 127 kts | 39° |
| 2026-05-07 21:32 | 29.53105 | -98.21619 | 2673 ft | 126 kts | 53° |
| 2026-05-07 21:32 | 29.53679 | -98.20837 | 2835 ft | 129 kts | 52° |
| 2026-05-07 21:32 | 29.54276 | -98.20029 | 2984 ft | 137 kts | 53° |
| 2026-05-07 21:32 | 29.54904 | -98.19152 | 2992 ft | 146 kts | 53° |
| 2026-05-07 21:33 | 29.55561 | -98.18221 | 2993 ft | 154 kts | 53° |
| 2026-05-07 21:33 | 29.56243 | -98.17249 | 2995 ft | 158 kts | 53° |
| 2026-05-07 21:33 | 29.56924 | -98.16265 | 2997 ft | 160 kts | 54° |
| 2026-05-07 21:33 | 29.57615 | -98.15260 | 2996 ft | 160 kts | 54° |
| 2026-05-07 21:34 | 29.58285 | -98.14290 | 3000 ft | 152 kts | 53° |
| 2026-05-07 21:34 | 29.58928 | -98.13354 | 2991 ft | 146 kts | 53° |
| 2026-05-07 21:34 | 29.59550 | -98.12452 | 2988 ft | 143 kts | 54° |
| 2026-05-07 21:34 | 29.60165 | -98.11556 | 2992 ft | 142 kts | 52° |
| 2026-05-07 21:35 | 29.60779 | -98.10663 | 2990 ft | 143 kts | 52° |
| 2026-05-07 21:35 | 29.61395 | -98.09764 | 2992 ft | 143 kts | 52° |
| 2026-05-07 21:35 | 29.62008 | -98.08871 | 2992 ft | 142 kts | 52° |
| 2026-05-07 21:35 | 29.62618 | -98.07982 | 2993 ft | 142 kts | 53° |
| 2026-05-07 21:36 | 29.63231 | -98.07086 | 2992 ft | 142 kts | 52° |
| 2026-05-07 21:36 | 29.63841 | -98.06195 | 2993 ft | 141 kts | 53° |
| 2026-05-07 21:36 | 29.64448 | -98.05309 | 2990 ft | 140 kts | 52° |
| 2026-05-07 21:36 | 29.65054 | -98.04424 | 2991 ft | 142 kts | 53° |
| 2026-05-07 21:37 | 29.65660 | -98.03536 | 2993 ft | 140 kts | 52° |
| 2026-05-07 21:37 | 29.66256 | -98.02666 | 2996 ft | 141 kts | 54° |
| 2026-05-07 21:37 | 29.66848 | -98.01750 | 2994 ft | 141 kts | 57° |
| 2026-05-07 21:37 | 29.67367 | -98.00802 | 2997 ft | 142 kts | 58° |
| 2026-05-07 21:38 | 29.67886 | -97.99861 | 2999 ft | 142 kts | 58° |
| 2026-05-07 21:38 | 29.68417 | -97.98909 | 2996 ft | 142 kts | 58° |
| 2026-05-07 21:38 | 29.68948 | -97.97956 | 2997 ft | 142 kts | 58° |
| 2026-05-07 21:38 | 29.69349 | -97.96930 | 2988 ft | 143 kts | 81° |
| 2026-05-07 21:39 | 29.69169 | -97.95814 | 2990 ft | 145 kts | 113° |
| 2026-05-07 21:39 | 29.68447 | -97.94993 | 2990 ft | 152 kts | 148° |
| 2026-05-07 21:39 | 29.67392 | -97.94819 | 2990 ft | 161 kts | 185° |
| 2026-05-07 21:39 | 29.66424 | -97.95473 | 2990 ft | 167 kts | 227° |
| 2026-05-07 21:40 | 29.65955 | -97.96691 | 2992 ft | 169 kts | 251° |
| 2026-05-07 21:40 | 29.65528 | -97.97954 | 2989 ft | 170 kts | 257° |
| 2026-05-07 21:40 | 29.65234 | -97.99267 | 2994 ft | 171 kts | 251° |
| 2026-05-07 21:40 | 29.64589 | -98.00403 | 2989 ft | 171 kts | 223° |
| 2026-05-07 21:41 | 29.63613 | -98.01134 | 2995 ft | 167 kts | 197° |
| 2026-05-07 21:41 | 29.62642 | -98.01843 | 2993 ft | 169 kts | 220° |
| 2026-05-07 21:41 | 29.61778 | -98.02763 | 2993 ft | 169 kts | 220° |
| 2026-05-07 21:41 | 29.60887 | -98.03639 | 3068 ft | 169 kts | 216° |
| 2026-05-07 21:42 | 29.59969 | -98.04449 | 3350 ft | 165 kts | 213° |
| 2026-05-07 21:42 | 29.59055 | -98.05241 | 3570 ft | 163 kts | 212° |
| 2026-05-07 21:42 | 29.58136 | -98.06011 | 3754 ft | 162 kts | 202° |
| 2026-05-07 21:42 | 29.57082 | -98.06182 | 3951 ft | 152 kts | 169° |
| 2026-05-07 21:43 | 29.55985 | -98.06048 | 3963 ft | 164 kts | 171° |
| 2026-05-07 21:43 | 29.54821 | -98.05968 | 3967 ft | 171 kts | 174° |
| 2026-05-07 21:43 | 29.53628 | -98.05901 | 3968 ft | 172 kts | 174° |
| 2026-05-07 21:43 | 29.52437 | -98.05836 | 3993 ft | 170 kts | 173° |
| 2026-05-07 21:44 | 29.51260 | -98.05768 | 3982 ft | 169 kts | 174° |
| 2026-05-07 21:44 | 29.50089 | -98.05697 | 3979 ft | 168 kts | 172° |
| 2026-05-07 21:44 | 29.48939 | -98.05631 | 3978 ft | 167 kts | 172° |
| 2026-05-07 21:44 | 29.47784 | -98.05562 | 3976 ft | 166 kts | 173° |
| 2026-05-07 21:45 | 29.46629 | -98.05495 | 3976 ft | 167 kts | 172° |
| 2026-05-07 21:45 | 29.45461 | -98.05426 | 3976 ft | 168 kts | 174° |
| 2026-05-07 21:45 | 29.44290 | -98.05359 | 3972 ft | 169 kts | 174° |
| 2026-05-07 21:45 | 29.43114 | -98.05293 | 3972 ft | 169 kts | 173° |
| 2026-05-07 21:46 | 29.41958 | -98.05224 | 3977 ft | 168 kts | 174° |
| 2026-05-07 21:46 | 29.40802 | -98.05228 | 3963 ft | 167 kts | 186° |
| 2026-05-07 21:46 | 29.39713 | -98.05710 | 3962 ft | 169 kts | 205° |
| 2026-05-07 21:46 | 29.38737 | -98.06453 | 3964 ft | 168 kts | 210° |
| 2026-05-07 21:47 | 29.37785 | -98.07243 | 3961 ft | 169 kts | 215° |
| 2026-05-07 21:47 | 29.36869 | -98.08090 | 3960 ft | 170 kts | 217° |
| 2026-05-07 21:47 | 29.35988 | -98.08992 | 3962 ft | 170 kts | 219° |
| 2026-05-07 21:47 | 29.35144 | -98.09948 | 3955 ft | 171 kts | 222° |
| 2026-05-07 21:48 | 29.34340 | -98.10956 | 3960 ft | 171 kts | 225° |
| 2026-05-07 21:48 | 29.33582 | -98.12009 | 3960 ft | 171 kts | 229° |
| 2026-05-07 21:48 | 29.32878 | -98.13109 | 3958 ft | 172 kts | 235° |
| 2026-05-07 21:48 | 29.32581 | -98.14432 | 3957 ft | 177 kts | 272° |
| 2026-05-07 21:49 | 29.33040 | -98.15728 | 3957 ft | 178 kts | 311° |
| 2026-05-07 21:49 | 29.34016 | -98.16534 | 3960 ft | 173 kts | 334° |
| 2026-05-07 21:49 | 29.34721 | -98.16977 | 3971 ft | 170 kts | 333° |
| 2026-05-07 21:49 | 29.36077 | -98.17856 | 3972 ft | 166 kts | 332° |
| 2026-05-07 21:50 | 29.37084 | -98.18495 | 3889 ft | 165 kts | 333° |
| 2026-05-07 21:50 | 29.38096 | -98.19151 | 3698 ft | 169 kts | 332° |
| 2026-05-07 21:50 | 29.39128 | -98.19847 | 3493 ft | 175 kts | 335° |
| 2026-05-07 21:50 | 29.40197 | -98.20534 | 3265 ft | 176 kts | 335° |
| 2026-05-07 21:51 | 29.40896 | -98.21000 | 3114 ft | 174 kts | 333° |
| 2026-05-07 21:51 | 29.41909 | -98.21668 | 2895 ft | 162 kts | 335° |
| 2026-05-07 21:51 | 29.42850 | -98.22289 | 2691 ft | 151 kts | 337° |
| 2026-05-07 21:51 | 29.43736 | -98.22878 | 2499 ft | 143 kts | 337° |
| 2026-05-07 21:52 | 29.44579 | -98.23434 | 2314 ft | 135 kts | 336° |
| 2026-05-07 21:52 | 29.45366 | -98.23957 | 2145 ft | 125 kts | 334° |
| 2026-05-07 21:52 | 29.46052 | -98.24412 | 1992 ft | 106 kts | 337° |
| 2026-05-07 21:52 | 29.46664 | -98.24816 | 1850 ft | 98 kts | 337° |
| 2026-05-07 21:53 | 29.47230 | -98.25192 | 1721 ft | 92 kts | 339° |
| 2026-05-07 21:53 | 29.47750 | -98.25535 | 1605 ft | 82 kts | 335° |
| 2026-05-07 21:53 | 29.48222 | -98.25843 | 1512 ft | 76 kts | 338° |
| 2026-05-07 21:53 | 29.48671 | -98.26121 | 1388 ft | 72 kts | 343° |
| 2026-05-07 21:54 | 29.49124 | -98.26443 | 1308 ft | 79 kts | 339° |
| 2026-05-07 21:54 | 29.49610 | -98.26763 | 1209 ft | 82 kts | 336° |
| 2026-05-07 21:54 | 29.50106 | -98.27090 | 1094 ft | 82 kts | 338° |
| 2026-05-07 21:54 | 29.50594 | -98.27409 | 980 ft | 80 kts | 336° |
| 2026-05-07 21:55 | 29.51061 | -98.27735 | 882 ft | 76 kts | 340° |
| 2026-05-07 21:55 | 29.51507 | -98.28018 | 782 ft | 72 kts | 340° |
| 2026-05-07 21:55 | 29.51917 | -98.28288 | 734 ft | 61 kts | 341° |
| 2026-05-07 21:55 | 29.52263 | -98.28459 | 742 ft | 46 kts | 338° |
| 2026-05-07 21:56 | 29.52488 | -98.28634 | 742 ft | 34 kts | 322° |
| 2026-05-07 21:56 | 29.52668 | -98.28769 | 742 ft | 28 kts | 322° |
| 2026-05-07 21:56 | 29.52825 | -98.28879 | 747 ft | 27 kts | 331° |
| 2026-05-07 21:56 | 29.52977 | -98.28980 | 752 ft | 22 kts | 329° |
| 2026-05-07 21:57 | 29.53086 | -98.28966 | 756 ft | 11 kts | 59° |
| 2026-05-07 21:57 | 29.53088 | -98.28961 | 757 ft | 0 kts | 61° |
| 2026-05-07 22:01 | 29.53119 | -98.28895 | 760 ft | 12 kts | 62° |
| 2026-05-07 22:02 | 29.53125 | -98.28884 | 757 ft | 1 kts | 63° |
| 2026-05-07 22:02 | 29.53124 | -98.28849 | 740 ft | 10 kts | 156° |
| 2026-05-07 22:02 | 29.53029 | -98.28800 | 751 ft | 14 kts | 150° |
| 2026-05-07 22:02 | 29.52987 | -98.28773 | 747 ft | 8 kts | 149° |
| 2026-05-07 22:03 | 29.52910 | -98.28719 | 748 ft | 17 kts | 152° |
| 2026-05-07 22:03 | 29.52844 | -98.28678 | 748 ft | 9 kts | 151° |
| 2026-05-07 22:03 | 29.52758 | -98.28621 | 744 ft | 18 kts | 147° |
| 2026-05-07 22:03 | 29.52660 | -98.28557 | 744 ft | 16 kts | 152° |
| 2026-05-07 22:04 | 29.52581 | -98.28507 | 745 ft | 10 kts | 150° |
| 2026-05-07 22:04 | 29.52582 | -98.28458 | 745 ft | 8 kts | 59° |
| 2026-05-07 22:04 | 29.52580 | -98.28418 | 745 ft | 8 kts | 63° |
| 2026-05-07 22:04 | 29.52598 | -98.28385 | 745 ft | 0 kts | 57° |